Terminal Aerodrome Forecast
Issued by NWS Pocatello, ID

Home | Current Version | Previous Version | Text Only | Print | Product List | Glossary On
Versions: 1 2 3 4 5 6 7 8 9 10 11 12 13 14 15 16
000
FTUS45 KPIH 171700
TAFPIH
TAF
KPIH 171720Z 1718/1818 23011G20KT P6SM SCT150
     FM181000 22015G25KT P6SM VCSH OVC060
     FM181300 23022G32KT P6SM -SHRA OVC050=

USA.gov is the U.S. government's official web portal to all federal, state and local government web resources and services.